Terminal Aerodrome Forecast
Issued by NWS Melbourne, FL

Home | Current Version | Previous Version | Text Only | Print | Product List | Glossary On
Versions: 1 2 3 4 5 6 7 8 9 10 11 12 13
000
FTUS42 KMLB 031735
TAFVRB
TAF
KVRB 031735Z 0318/0418 07012KT P6SM SCT060
     FM040300 08008KT P6SM VCSH SCT040
     FM041400 08012G18KT P6SM VCSH SCT040 SCT060=

USA.gov is the U.S. government's official web portal to all federal, state and local government web resources and services.